Time;durP1;ratioP1;P1;durP2;ratioP2;P2;SDS_P1;SDS_P2;PMS_P1;PMS_P2;Temp;Humidity;BMP_temperature;BMP_pressure;BME280_temperature;BME280_humidity;BME280_pressure;Samples;Min_cycle;Max_cycle;Signal;HPM_P1;HPM_P2
2022/12/04 01:28:22;;;;;;;12.43;4.65;;;;;;;2.20;44.13;102282.59;1881757;75;22723;-81
2022/12/04 01:31:27;;;;;;;10.38;4.12;;;;;;;1.81;43.13;102295.30;1781231;80;21227;-80
2022/12/04 01:34:33;;;;;;;13.90;5.25;;;;;;;1.66;42.40;102294.19;1796524;79;21705;-82
2022/12/04 01:37:38;;;;;;;9.90;3.52;;;;;;;1.09;43.42;102302.13;1780947;79;21193;-79
2022/12/04 01:40:44;;;;;;;16.48;3.75;;;;;;;0.99;42.71;102303.48;1754701;82;21152;-78
2022/12/04 01:43:43;;;;;;;10.20;3.57;;;;;;;1.10;42.17;102305.22;1730937;82;21195;-79
2022/12/04 01:46:53;;;;;;;12.78;3.83;;;;;;;0.81;42.11;102302.44;1754531;82;21163;-81
2022/12/04 01:49:58;;;;;;;10.28;3.83;;;;;;;0.58;42.48;102300.70;1732415;82;21127;-82
2022/12/04 01:53:03;;;;;;;7.97;2.98;;;;;;;0.67;42.23;102296.77;1754904;82;21195;-82
2022/12/04 01:56:08;;;;;;;12.75;3.65;;;;;;;0.84;41.78;102291.52;1754941;82;21183;-80
2022/12/04 01:59:13;;;;;;;12.43;4.22;;;;;;;1.02;41.47;102305.55;1776670;80;21673;-80
2022/12/04 02:02:20;;;;;;;9.88;5.00;;;;;;;0.84;41.01;102308.16;1763755;80;21800;-80
2022/12/04 02:05:27;;;;;;;9.98;3.52;;;;;;;0.65;41.47;102304.88;1784613;80;21140;-82
2022/12/04 02:08:33;;;;;;;16.55;3.85;;;;;;;0.86;40.98;102310.33;1786336;80;21196;-77
2022/12/04 02:12:10;;;;;;;7.33;4.12;;;;;;;0.93;40.80;102309.98;1754966;82;21187;-77
2022/12/04 02:15:31;;;;;;;5.45;2.70;;;;;;;1.11;40.21;102316.41;1755056;82;21128;-78
2022/12/04 02:18:46;;;;;;;8.43;3.27;;;;;;;1.00;40.56;102311.96;1756198;80;21128;-77
2022/12/04 02:21:51;;;;;;;8.25;4.78;;;;;;;0.41;41.31;102312.16;1768942;81;21177;-78
2022/12/04 02:25:28;;;;;;;8.53;4.28;;;;;;;0.22;41.26;102321.92;1768981;81;21165;-80
2022/12/04 02:28:51;;;;;;;12.28;4.17;;;;;;;0.33;41.38;102321.48;1769518;80;21193;-80
2022/12/04 02:32:18;;;;;;;6.80;3.77;;;;;;;0.58;41.15;102330.33;1760495;81;21218;-78
2022/12/04 02:35:36;;;;;;;7.42;3.12;;;;;;;0.60;41.03;102331.61;1740526;82;21186;-78
2022/12/04 02:39:09;;;;;;;10.90;3.67;;;;;;;0.45;41.24;102327.73;1772067;80;21145;-78
2022/12/04 02:42:45;;;;;;;4.50;2.70;;;;;;;0.93;40.24;102327.49;1759940;81;21707;-80
2022/12/04 02:45:53;;;;;;;9.00;4.53;;;;;;;0.54;40.46;102325.14;1759875;81;21712;-80
2022/12/04 02:49:00;;;;;;;10.88;3.62;;;;;;;0.32;40.24;102330.50;1759283;80;21124;-81
2022/12/04 02:52:05;;;;;;;5.33;3.33;;;;;;;0.67;39.72;102328.61;1771279;81;21177;-82
2022/12/04 02:55:29;;;;;;;4.80;3.20;;;;;;;1.14;39.18;102320.32;1791256;80;21745;-80
2022/12/04 02:58:38;;;;;;;12.37;4.20;;;;;;;1.21;38.86;102331.23;1758905;80;21132;-80
2022/12/04 03:01:46;;;;;;;5.00;4.10;;;;;;;1.83;37.63;102341.48;1760482;80;21772;-81
2022/12/04 03:04:51;;;;;;;6.15;3.55;;;;;;;1.31;38.22;102338.44;1760048;81;21161;-80
2022/12/04 03:08:04;;;;;;;9.88;4.25;;;;;;;0.91;38.39;102346.91;1763648;80;21238;-80
2022/12/04 03:11:10;;;;;;;7.33;4.67;;;;;;;0.99;38.66;102331.78;1791265;80;21152;-80
2022/12/04 03:14:20;;;;;;;12.45;4.25;;;;;;;1.26;38.08;102331.03;1777793;80;21184;-80
2022/12/04 03:17:33;;;;;;;4.78;2.25;;;;;;;1.61;37.53;102321.37;1791065;80;21705;-80
2022/12/04 03:20:40;;;;;;;7.50;4.70;;;;;;;1.42;37.13;102324.03;1791191;80;21198;-80
2022/12/04 03:23:53;;;;;;;14.95;4.60;;;;;;;1.67;36.85;102333.23;1771426;81;21708;-81
2022/12/04 03:27:31;;;;;;;6.75;3.15;;;;;;;1.88;36.14;102331.34;1790982;80;21215;-81
2022/12/04 03:30:44;;;;;;;6.83;3.00;;;;;;;1.87;35.85;102347.63;1786732;80;21148;-80
2022/12/04 03:33:53;;;;;;;7.37;4.95;;;;;;;2.04;35.29;102335.58;1771162;81;21165;-82
2022/12/04 03:37:02;;;;;;;9.83;5.58;;;;;;;2.32;35.09;102358.09;1789720;80;21168;-79
2022/12/04 03:40:27;;;;;;;6.40;3.22;;;;;;;1.83;35.13;102346.01;1817370;78;21136;-80
2022/12/04 03:43:50;;;;;;;6.78;3.10;;;;;;;2.00;35.32;102352.38;1818795;78;21247;-81
2022/12/04 03:47:12;;;;;;;5.60;2.62;;;;;;;1.94;35.15;102345.06;1815927;78;21187;-81
2022/12/04 03:50:25;;;;;;;14.47;3.15;;;;;;;1.92;35.06;102343.76;1796188;78;21140;-80
2022/12/04 03:53:38;;;;;;;6.33;2.55;;;;;;;2.13;35.20;102346.42;1759969;81;21152;-80
2022/12/04 03:56:46;;;;;;;4.78;2.70;;;;;;;2.05;35.20;102345.42;1760199;80;21219;-80
2022/12/04 04:00:05;;;;;;;6.47;2.58;;;;;;;2.09;35.18;102345.69;1770696;80;21141;-80
2022/12/04 04:03:38;;;;;;;9.35;2.60;;;;;;;1.96;35.13;102351.25;1784908;80;21179;-81
2022/12/04 04:06:50;;;;;;;4.87;2.50;;;;;;;2.24;35.02;102353.53;1803076;79;21766;-79
2022/12/04 04:09:57;;;;;;;4.25;1.95;;;;;;;2.97;34.30;102348.58;1790329;80;21136;-80
2022/12/04 04:26:48;;;;;;;6.92;2.87;;;;;;;1.94;34.63;102355.37;1790906;80;21182;-80
2022/12/04 04:29:53;;;;;;;7.67;2.50;;;;;;;2.87;33.47;102354.50;1792563;78;21201;-79
2022/12/04 04:33:13;;;;;;;4.55;2.12;;;;;;;2.81;33.54;102353.86;1768663;80;21159;-79
2022/12/04 04:36:32;;;;;;;4.95;2.15;;;;;;;2.75;33.56;102352.82;1806148;79;21652;-81
2022/12/04 04:40:09;;;;;;;5.55;2.67;;;;;;;2.30;33.79;102359.98;1773519;80;21172;-80
2022/12/04 04:43:33;;;;;;;10.65;3.22;;;;;;;2.84;33.49;102354.19;1803109;79;21143;-81
2022/12/04 04:46:41;;;;;;;3.98;2.00;;;;;;;2.86;33.36;102369.84;1783478;79;21200;-81
2022/12/04 04:49:46;;;;;;;6.47;2.98;;;;;;;2.29;34.50;102365.86;1755284;80;21764;-80
2022/12/04 04:52:58;;;;;;;7.15;2.00;;;;;;;2.05;34.87;102384.09;1784199;80;21147;-80
2022/12/04 04:56:02;;;;;;;4.72;2.65;;;;;;;2.87;33.88;102377.02;1799953;80;21154;-80
2022/12/04 04:59:08;;;;;;;7.65;2.55;;;;;;;2.65;34.38;102388.01;1785340;80;21148;-80
2022/12/04 05:02:13;;;;;;;7.17;2.72;;;;;;;2.50;34.81;102392.81;1792058;80;21150;-80
2022/12/04 05:05:18;;;;;;;10.15;2.83;;;;;;;2.36;34.90;102390.77;1781593;80;21697;-80
2022/12/04 05:08:23;;;;;;;5.47;1.90;;;;;;;2.90;34.26;102388.14;1813434;78;21111;-80
2022/12/04 05:11:29;;;;;;;5.90;2.35;;;;;;;2.68;34.46;102383.81;1814572;79;21175;-80
2022/12/04 05:14:35;;;;;;;6.03;2.37;;;;;;;2.93;34.32;102392.06;1779798;80;21561;-80
2022/12/04 05:17:42;;;;;;;7.40;3.08;;;;;;;2.53;34.72;102391.29;1796595;79;21149;-80
2022/12/04 05:20:47;;;;;;;5.83;2.45;;;;;;;2.74;34.47;102392.09;1776823;80;21136;-80
2022/12/04 05:23:52;;;;;;;8.33;2.60;;;;;;;2.46;34.86;102391.20;1814575;79;21124;-80
2022/12/04 05:26:51;;;;;;;5.87;2.62;;;;;;;2.00;35.43;102398.75;1785865;80;21169;-81
2022/12/04 05:29:49;;;;;;;7.92;2.37;;;;;;;2.33;35.11;102399.00;1786463;79;21729;-80
2022/12/04 05:32:55;;;;;;;5.08;2.40;;;;;;;2.35;34.99;102396.22;1770227;80;21163;-80
2022/12/04 05:36:08;;;;;;;4.25;2.33;;;;;;;2.08;35.01;102396.58;1780257;80;21140;-80
2022/12/04 05:39:13;;;;;;;7.67;3.12;;;;;;;2.48;34.51;102410.42;1785472;80;21132;-80
2022/12/04 05:42:19;;;;;;;4.85;2.00;;;;;;;2.56;34.10;102401.48;1781691;80;21185;-80
2022/12/04 05:45:25;;;;;;;6.97;2.17;;;;;;;2.13;34.67;102414.80;1785290;80;21176;-80
2022/12/04 05:48:30;;;;;;;5.85;2.60;;;;;;;2.70;33.95;102406.22;1774430;80;21149;-80
2022/12/04 05:51:36;;;;;;;7.65;3.20;;;;;;;2.76;33.71;102410.45;1772582;80;21728;-80
2022/12/04 05:54:42;;;;;;;4.87;2.25;;;;;;;2.20;33.95;102399.17;1754273;82;21155;-80
2022/12/04 05:57:49;;;;;;;6.10;2.47;;;;;;;1.90;34.49;102408.22;1753494;82;21207;-80
2022/12/04 06:00:54;;;;;;;11.18;2.83;;;;;;;2.37;33.98;102406.49;1753255;82;21728;-80
2022/12/04 06:04:00;;;;;;;13.72;3.15;;;;;;;2.23;33.50;102401.73;1754278;82;21176;-80
2022/12/04 06:07:04;;;;;;;3.92;2.37;;;;;;;2.46;33.72;102418.22;1754086;82;21223;-80
2022/12/04 06:10:09;;;;;;;7.15;2.83;;;;;;;2.63;33.39;102425.50;1753806;82;21191;-80
2022/12/04 06:13:15;;;;;;;2.70;1.62;;;;;;;2.81;32.89;102401.63;1753599;82;21772;-81
2022/12/04 06:16:23;;;;;;;10.90;2.75;;;;;;;2.58;33.37;102412.20;1753686;82;21505;-80
2022/12/04 06:19:27;;;;;;;4.30;1.77;;;;;;;2.13;33.98;102414.80;1753965;82;21231;-80
2022/12/04 06:22:33;;;;;;;3.47;2.17;;;;;;;3.00;33.05;102416.47;1753895;82;21223;-80
2022/12/04 06:25:41;;;;;;;4.78;1.95;;;;;;;2.72;33.28;102418.30;1754290;82;21152;-81
2022/12/04 06:28:47;;;;;;;5.65;3.98;;;;;;;2.78;32.89;102422.08;1754262;82;21721;-81
2022/12/04 06:31:53;;;;;;;5.25;2.55;;;;;;;2.47;33.13;102404.62;1753789;80;21736;-81
2022/12/04 06:35:00;;;;;;;6.42;3.02;;;;;;;2.61;33.30;102432.33;1754482;82;21144;-81
2022/12/04 06:38:07;;;;;;;5.55;2.20;;;;;;;2.72;32.99;102419.17;1754598;82;21167;-80
2022/12/04 06:41:14;;;;;;;8.53;3.35;;;;;;;3.11;32.67;102423.59;1754422;82;21230;-81
2022/12/04 06:44:21;;;;;;;6.58;3.90;;;;;;;2.74;33.05;102430.80;1754433;82;21187;-80
2022/12/04 06:47:26;;;;;;;3.67;1.95;;;;;;;2.76;32.83;102407.27;1754424;82;21167;-80
2022/12/04 06:50:32;;;;;;;5.62;2.50;;;;;;;2.97;32.61;102414.81;1754415;82;21179;-80
2022/12/04 06:53:37;;;;;;;6.08;3.30;;;;;;;3.02;32.04;102416.80;1754480;82;21198;-80
2022/12/04 06:56:43;;;;;;;4.60;2.42;;;;;;;3.98;31.08;102441.17;1754424;82;21187;-80
2022/12/04 06:59:48;;;;;;;3.33;3.02;;;;;;;3.49;31.44;102430.23;1754446;82;21736;-81
2022/12/04 07:02:53;;;;;;;4.08;2.85;;;;;;;3.26;31.72;102434.98;1754383;82;21172;-81
2022/12/04 07:05:59;;;;;;;9.70;2.27;;;;;;;3.37;31.53;102426.79;1754383;82;21184;-81
2022/12/04 07:09:08;;;;;;;6.72;3.15;;;;;;;3.67;31.16;102427.92;1754419;82;21156;-81
2022/12/04 07:12:14;;;;;;;4.15;2.70;;;;;;;3.79;31.14;102423.68;1753581;82;21191;-80
2022/12/04 07:15:20;;;;;;;8.53;3.05;;;;;;;3.81;31.13;102433.48;1754424;82;21147;-81
2022/12/04 07:18:25;;;;;;;7.55;3.37;;;;;;;4.14;30.96;102430.38;1754326;82;21176;-81
2022/12/04 07:21:36;;;;;;;11.97;2.33;;;;;;;4.41;30.39;102445.12;1754154;82;21207;-81
2022/12/04 07:24:42;;;;;;;14.18;3.22;;;;;;;4.74;29.79;102454.57;1754626;82;21692;-81
2022/12/04 07:27:48;;;;;;;9.65;4.60;;;;;;;4.03;30.42;102430.97;1753098;82;21195;-80
2022/12/04 07:30:55;;;;;;;10.93;4.75;;;;;;;3.75;30.61;102443.27;1752775;82;21148;-79
2022/12/04 07:34:01;;;;;;;9.88;4.65;;;;;;;3.80;31.04;102442.53;1757739;80;21231;-80
2022/12/04 07:37:06;;;;;;;8.20;3.70;;;;;;;3.72;30.73;102452.05;1759919;81;21227;-81
2022/12/04 07:40:12;;;;;;;7.30;2.45;;;;;;;3.80;30.31;102451.14;1759987;81;21183;-80
2022/12/04 07:43:19;;;;;;;3.47;2.42;;;;;;;4.14;30.69;102456.11;1760044;81;21183;-81
2022/12/04 07:46:31;;;;;;;11.28;3.25;;;;;;;4.57;30.53;102456.89;1758715;81;21223;-80
2022/12/04 07:49:36;;;;;;;6.20;2.10;;;;;;;4.50;30.15;102445.11;1760057;81;21495;-80
2022/12/04 07:52:46;;;;;;;9.65;3.58;;;;;;;4.51;29.65;102454.50;1760067;81;21185;-80
2022/12/04 07:55:52;;;;;;;7.37;3.08;;;;;;;4.58;29.80;102449.63;1759926;81;21210;-80
2022/12/04 07:58:59;;;;;;;5.87;2.55;;;;;;;4.78;29.44;102446.66;1750159;80;21696;-80
2022/12/04 08:02:05;;;;;;;6.87;4.28;;;;;;;4.73;29.61;102462.80;1790365;80;21191;-80
2022/12/04 08:05:10;;;;;;;4.58;2.60;;;;;;;4.86;29.06;102441.69;1789603;80;21747;-82
2022/12/04 08:08:14;;;;;;;5.45;3.50;;;;;;;4.95;29.46;102454.33;1791137;80;21186;-81
2022/12/04 08:11:22;;;;;;;5.83;3.08;;;;;;;5.17;28.84;102448.03;1791164;80;21183;-81
2022/12/04 08:14:28;;;;;;;7.35;4.37;;;;;;;5.27;29.02;102445.20;1791321;80;21140;-82
2022/12/04 08:17:32;;;;;;;8.55;3.25;;;;;;;5.03;28.96;102435.27;1790952;80;21176;-81
2022/12/04 08:20:37;;;;;;;8.75;3.30;;;;;;;4.77;29.26;102435.91;1790981;80;21183;-82
2022/12/04 08:23:43;;;;;;;5.40;2.22;;;;;;;5.08;29.11;102439.08;1789625;80;21144;-80
2022/12/04 08:26:50;;;;;;;8.68;4.70;;;;;;;5.51;28.31;102454.22;1789953;80;21195;-81
2022/12/04 08:29:55;;;;;;;8.75;2.87;;;;;;;5.69;28.03;102444.06;1790376;80;21140;-80
2022/12/04 08:33:01;;;;;;;4.65;1.98;;;;;;;5.48;28.63;102453.03;1789750;80;21183;-80
2022/12/04 08:36:06;;;;;;;6.00;4.37;;;;;;;5.02;28.72;102444.87;1771169;81;21177;-81
2022/12/04 08:39:13;;;;;;;5.55;3.10;;;;;;;5.17;28.72;102441.73;1791171;80;21148;-79
2022/12/04 08:42:18;;;;;;;6.83;2.62;;;;;;;5.79;28.04;102435.78;1790251;80;21183;-79
2022/12/04 08:45:24;;;;;;;15.00;3.95;;;;;;;5.66;28.55;102438.84;1791081;80;21187;-80
2022/12/04 08:48:31;;;;;;;9.95;3.05;;;;;;;5.67;28.41;102430.59;1790587;80;21748;-79
2022/12/04 08:51:37;;;;;;;8.10;3.00;;;;;;;5.73;27.84;102419.34;1790739;80;21197;-79
2022/12/04 08:54:43;;;;;;;5.42;1.92;;;;;;;5.96;28.10;102426.13;1791160;80;21170;-81
2022/12/04 08:57:48;;;;;;;7.87;3.22;;;;;;;5.99;27.75;102418.28;1791129;80;21764;-80
2022/12/04 09:00:55;;;;;;;5.62;4.42;;;;;;;6.17;27.69;102428.00;1791162;80;21142;-80
2022/12/04 09:04:01;;;;;;;5.53;2.67;;;;;;;6.24;27.39;102406.73;1790595;80;21175;-80
2022/12/04 09:07:06;;;;;;;14.58;3.58;;;;;;;6.93;27.30;102417.23;1791134;80;21759;-79
2022/12/04 09:10:13;;;;;;;7.17;2.87;;;;;;;6.90;26.61;102422.38;1791243;80;21740;-80
2022/12/04 09:13:18;;;;;;;6.30;2.90;;;;;;;7.12;26.95;102406.37;1791286;80;21171;-80
2022/12/04 09:16:29;;;;;;;6.37;2.80;;;;;;;7.14;26.72;102411.20;1791288;80;21218;-80
2022/12/04 09:19:35;;;;;;;8.03;3.90;;;;;;;7.16;26.83;102402.96;1791073;80;21175;-81
2022/12/04 09:22:41;;;;;;;6.17;2.95;;;;;;;6.95;27.29;102397.09;1791136;80;21191;-81
2022/12/04 09:25:47;;;;;;;6.95;3.05;;;;;;;6.47;27.40;102396.63;1790215;80;21785;-81
2022/12/04 09:28:53;;;;;;;14.40;2.42;;;;;;;6.61;26.90;102385.72;1791159;80;21191;-81
2022/12/04 09:31:58;;;;;;;4.08;2.40;;;;;;;6.69;27.45;102378.92;1791100;80;21728;-81
2022/12/04 09:35:04;;;;;;;3.85;2.35;;;;;;;6.72;27.58;102386.86;1790768;79;21227;-79
2022/12/04 09:38:09;;;;;;;9.00;3.00;;;;;;;6.76;27.41;102375.67;1791102;80;21195;-81
2022/12/04 09:41:31;;;;;;;7.17;2.67;;;;;;;6.47;27.23;102376.72;1791097;80;21171;-81
2022/12/04 09:44:50;;;;;;;6.58;2.50;;;;;;;6.28;27.78;102388.78;1791192;80;21713;-80
2022/12/04 09:48:01;;;;;;;11.03;2.40;;;;;;;6.08;28.06;102392.77;1791060;80;21202;-81
2022/12/04 09:51:06;;;;;;;6.78;2.72;;;;;;;6.59;27.56;102375.94;1791190;80;21144;-81
2022/12/04 09:54:27;;;;;;;6.87;2.67;;;;;;;6.23;27.83;102388.20;1790296;80;21180;-79
2022/12/04 09:57:54;;;;;;;12.35;3.15;;;;;;;6.52;27.27;102374.58;1791351;80;21159;-81
2022/12/04 10:00:59;;;;;;;11.43;2.77;;;;;;;6.80;27.17;102375.86;1791253;80;21139;-80
2022/12/04 10:04:05;;;;;;;12.85;3.37;;;;;;;6.61;26.96;102380.28;1791231;80;21144;-80
2022/12/04 10:07:40;;;;;;;5.65;2.80;;;;;;;7.06;26.35;102362.38;1791246;80;21179;-79
2022/12/04 10:11:10;;;;;;;13.78;3.22;;;;;;;6.84;26.62;102379.27;1791333;80;21167;-80
2022/12/04 10:14:29;;;;;;;7.50;2.25;;;;;;;7.22;26.16;102363.07;1791225;80;21175;-80
2022/12/04 10:17:57;;;;;;;9.68;3.00;;;;;;;7.21;26.23;102373.58;1771379;81;21232;-81
2022/12/04 10:21:30;;;;;;;7.37;2.92;;;;;;;7.01;26.45;102376.30;1791084;80;21176;-80
2022/12/04 10:24:52;;;;;;;7.28;2.77;;;;;;;7.18;26.20;102357.45;1791240;80;21179;-81
2022/12/04 10:28:28;;;;;;;5.25;2.92;;;;;;;7.04;26.15;102367.91;1791205;80;21223;-81
2022/12/04 10:31:34;;;;;;;9.88;3.95;;;;;;;6.94;26.35;102356.39;1791208;80;21213;-81
2022/12/04 10:34:39;;;;;;;5.00;3.08;;;;;;;6.90;26.40;102350.28;1791107;80;21175;-81
2022/12/04 10:37:46;;;;;;;7.90;2.85;;;;;;;7.08;26.50;102359.05;1787364;78;21187;-80
2022/12/04 10:40:55;;;;;;;3.40;2.25;;;;;;;7.49;25.98;102364.88;1788595;80;21131;-81
2022/12/04 10:44:00;;;;;;;8.45;3.85;;;;;;;7.41;25.87;102357.23;1788212;80;21199;-81
2022/12/04 10:47:09;;;;;;;8.70;3.95;;;;;;;7.02;26.39;102349.47;1787642;80;21715;-81
2022/12/04 10:50:25;;;;;;;6.15;2.98;;;;;;;7.01;25.94;102340.92;1788398;80;21171;-79
2022/12/04 10:53:37;;;;;;;5.80;2.20;;;;;;;6.95;26.03;102364.94;1756512;81;21161;-79
2022/12/04 10:56:36;;;;;;;11.80;2.60;;;;;;;7.34;25.63;102355.89;1788354;80;21214;-81
2022/12/04 10:59:41;;;;;;;7.55;2.75;;;;;;;6.85;25.79;102353.30;1788419;80;21140;-81
2022/12/04 11:02:47;;;;;;;5.58;2.85;;;;;;;7.31;25.79;102347.47;1766690;80;21164;-80
2022/12/04 11:05:55;;;;;;;9.03;3.27;;;;;;;7.17;26.28;102358.43;1787792;80;21183;-79
2022/12/04 11:09:01;;;;;;;7.97;3.85;;;;;;;7.36;25.96;102348.52;1788247;80;21175;-79
2022/12/04 11:12:20;;;;;;;10.85;2.90;;;;;;;7.56;25.68;102349.84;1788410;80;21179;-81
2022/12/04 11:15:26;;;;;;;5.42;2.72;;;;;;;7.63;25.02;102356.63;1788556;80;21152;-81
2022/12/04 11:18:27;;;;;;;7.12;3.08;;;;;;;7.50;25.26;102355.23;1788449;80;21148;-80
2022/12/04 11:21:28;;;;;;;12.53;3.60;;;;;;;7.59;25.14;102355.09;1788311;80;21167;-81
2022/12/04 11:24:41;;;;;;;6.30;3.20;;;;;;;7.74;25.14;102348.55;1788571;80;21171;-80
2022/12/04 11:27:40;;;;;;;5.05;2.95;;;;;;;7.66;25.13;102346.36;1788334;80;21784;-80
2022/12/04 11:30:46;;;;;;;5.87;3.40;;;;;;;7.73;25.38;102336.41;1788609;80;21139;-79
2022/12/04 11:33:57;;;;;;;6.83;3.20;;;;;;;7.47;24.66;102348.63;1788631;80;21151;-80
2022/12/04 11:37:03;;;;;;;7.72;3.35;;;;;;;7.37;24.97;102343.44;1788895;79;21159;-81
2022/12/04 11:40:13;;;;;;;19.52;3.60;;;;;;;7.74;24.70;102344.47;1791054;80;21696;-79
2022/12/04 11:43:21;;;;;;;5.97;2.77;;;;;;;7.86;24.48;102344.11;1791350;80;21172;-80
2022/12/04 11:46:32;;;;;;;6.42;3.35;;;;;;;7.75;24.49;102344.84;1791056;80;21206;-80
2022/12/04 11:49:38;;;;;;;4.05;2.52;;;;;;;8.28;24.16;102342.86;1791226;80;21677;-79
2022/12/04 11:52:51;;;;;;;12.88;5.28;;;;;;;7.83;24.06;102347.03;1791176;80;21696;-79
2022/12/04 11:56:21;;;;;;;10.50;3.75;;;;;;;7.81;24.54;102332.17;1791235;80;21171;-79
2022/12/04 11:59:47;;;;;;;7.70;3.35;;;;;;;7.98;24.64;102354.60;1791888;80;21187;-79
2022/12/04 12:03:17;;;;;;;9.63;2.87;;;;;;;8.02;24.21;102342.50;1792481;80;21210;-81
2022/12/04 12:06:44;;;;;;;6.95;2.77;;;;;;;7.57;24.46;102345.64;1790211;80;21139;-80
2022/12/04 12:10:04;;;;;;;13.32;3.60;;;;;;;8.02;23.94;102335.69;1791481;80;21706;-82
2022/12/04 12:13:34;;;;;;;;;;;;;;;8.25;23.65;102344.44;1793831;80;21743;-82
2022/12/04 12:16:52;;;;;;;6.35;2.33;;;;;;;8.20;23.80;102332.50;1770754;81;20614;-81
2022/12/04 12:20:12;;;;;;;12.65;3.47;;;;;;;7.96;23.84;102341.09;1789675;80;21143;-82
2022/12/04 12:23:27;;;;;;;13.75;3.02;;;;;;;7.55;24.20;102334.00;1790914;80;21839;-78
2022/12/04 12:26:38;;;;;;;6.80;3.58;;;;;;;7.60;25.03;102336.40;1790067;80;21207;-81
2022/12/04 12:30:11;;;;;;;9.08;3.60;;;;;;;7.46;25.39;102336.00;1791206;80;21203;-79
2022/12/04 12:33:27;;;;;;;10.50;3.22;;;;;;;7.42;25.05;102329.89;1791191;80;21147;-83
2022/12/04 12:36:32;;;;;;;8.95;3.20;;;;;;;8.39;23.87;102330.69;1789633;80;21185;-81
2022/12/04 12:39:56;;;;;;;9.45;3.45;;;;;;;7.87;24.04;102343.98;1785031;79;21171;-81
2022/12/04 12:43:07;;;;;;;9.18;3.67;;;;;;;8.32;23.69;102343.48;1762314;81;21169;-81
2022/12/04 12:46:28;;;;;;;9.45;4.17;;;;;;;7.67;24.52;102345.41;1784599;80;21231;-81
2022/12/04 12:49:43;;;;;;;7.95;3.45;;;;;;;7.65;24.30;102345.98;1785198;80;21150;-81
2022/12/04 12:52:59;;;;;;;9.53;4.10;;;;;;;7.77;24.40;102348.34;1747762;81;21738;-83
2022/12/04 12:56:05;;;;;;;20.05;4.20;;;;;;;7.67;24.69;102349.48;1785324;80;21175;-83
2022/12/04 12:59:12;;;;;;;13.98;3.70;;;;;;;7.48;24.46;102365.37;1751631;81;21157;-82
2022/12/04 13:02:42;;;;;;;12.73;3.85;;;;;;;7.66;24.19;102352.30;1785293;80;21184;-82
2022/12/04 13:05:51;;;;;;;15.83;4.25;;;;;;;7.41;24.19;102349.94;1785479;80;21136;-81
2022/12/04 13:09:28;;;;;;;7.27;3.30;;;;;;;7.59;23.90;102356.45;1785673;80;21175;-82
2022/12/04 13:12:34;;;;;;;10.35;4.12;;;;;;;7.74;24.23;102355.86;1785270;80;21167;-79
2022/12/04 13:15:55;;;;;;;8.58;3.70;;;;;;;7.90;24.89;102351.95;1785318;80;21175;-81
2022/12/04 13:19:07;;;;;;;18.37;3.52;;;;;;;7.67;24.54;102356.80;1785434;80;21486;-79
2022/12/04 13:22:35;;;;;;;7.80;3.67;;;;;;;7.67;24.22;102376.73;1785376;80;21191;-81
2022/12/04 13:26:26;;;;;;;8.08;3.87;;;;;;;8.16;24.29;102363.69;1785375;80;21136;-81
2022/12/04 13:30:13;;;;;;;11.48;3.50;;;;;;;8.34;24.35;102362.85;1785354;80;21713;-81
2022/12/04 13:33:44;;;;;;;16.50;5.03;;;;;;;7.91;24.95;102358.27;1785361;80;21131;-79
2022/12/04 13:37:08;;;;;;;6.87;4.05;;;;;;;8.04;25.13;102355.52;1784978;80;21164;-81
2022/12/04 13:40:28;;;;;;;12.82;4.30;;;;;;;7.89;25.22;102356.13;1787952;79;21223;-79
2022/12/04 13:43:56;;;;;;;13.58;4.60;;;;;;;7.53;25.28;102355.49;1791282;80;21724;-81
2022/12/04 13:47:11;;;;;;;12.28;4.80;;;;;;;7.74;25.15;102351.77;1790642;80;21187;-79
2022/12/04 13:50:26;;;;;;;7.78;4.45;;;;;;;8.12;24.86;102355.84;1791216;80;21147;-78
2022/12/04 13:53:43;;;;;;;6.75;4.10;;;;;;;8.16;24.84;102357.37;1767573;81;21232;-79
2022/12/04 13:56:57;;;;;;;8.80;4.47;;;;;;;8.06;24.89;102346.76;1791074;80;21156;-79
2022/12/04 14:00:16;;;;;;;14.85;5.40;;;;;;;7.85;25.06;102357.32;1791172;80;21120;-79
2022/12/04 14:03:42;;;;;;;14.83;4.45;;;;;;;8.35;24.50;102344.14;1791299;80;21128;-79
2022/12/04 14:06:51;;;;;;;10.35;4.05;;;;;;;8.07;24.49;102338.95;1791103;80;21215;-80
2022/12/04 14:09:59;;;;;;;11.90;5.58;;;;;;;8.16;24.12;102340.52;1750566;80;21231;-79
2022/12/04 14:13:25;;;;;;;8.68;4.15;;;;;;;7.66;24.67;102347.72;1791062;80;21219;-80
2022/12/04 14:16:44;;;;;;;9.58;3.15;;;;;;;8.22;23.86;102358.28;1790889;80;21228;-80
2022/12/04 14:19:50;;;;;;;11.95;4.78;;;;;;;8.08;23.60;102349.73;1790982;80;21155;-79
2022/12/04 14:22:57;;;;;;;12.58;5.37;;;;;;;8.69;23.37;102346.62;1789487;80;21210;-80
2022/12/04 14:26:04;;;;;;;15.23;6.25;;;;;;;8.13;24.07;102365.27;1789527;80;21171;-80
2022/12/04 14:29:38;;;;;;;8.25;4.10;;;;;;;7.69;24.97;102350.73;1769674;81;21160;-80
2022/12/04 14:32:45;;;;;;;11.75;4.87;;;;;;;8.14;24.77;102361.58;1789905;80;21243;-80
2022/12/04 14:35:57;;;;;;;10.28;4.00;;;;;;;7.77;25.40;102359.25;1769467;80;21131;-81
2022/12/04 14:39:11;;;;;;;13.13;5.05;;;;;;;7.90;25.22;102352.41;1790611;80;21175;-81
2022/12/04 14:42:32;;;;;;;19.20;4.72;;;;;;;7.70;24.93;102356.56;1774924;80;21744;-81
2022/12/04 14:45:46;;;;;;;14.23;5.05;;;;;;;8.30;24.55;102361.33;1788399;80;21143;-78
2022/12/04 14:49:04;;;;;;;22.27;5.15;;;;;;;8.75;24.24;102350.78;1776810;80;21164;-79
2022/12/04 14:52:25;;;;;;;13.25;4.80;;;;;;;10.16;23.10;102358.42;1788448;80;21270;-80
2022/12/04 14:55:59;;;;;;;12.03;5.20;;;;;;;10.65;22.36;102357.16;1788512;80;21167;-80
2022/12/04 14:59:05;;;;;;;10.80;4.78;;;;;;;6.73;26.09;102353.23;1788563;80;21168;-79
2022/12/04 15:02:10;;;;;;;7.67;4.65;;;;;;;6.60;26.60;102354.56;1788550;80;21214;-80
2022/12/04 15:05:21;;;;;;;11.03;5.17;;;;;;;6.60;27.02;102350.48;1766522;80;21180;-81
2022/12/04 15:08:27;;;;;;;9.68;4.83;;;;;;;6.79;26.49;102368.69;1787371;80;21779;-79
2022/12/04 15:14:56;;;;;;;11.88;6.10;;;;;;;8.55;25.70;102359.55;1788255;80;21200;-79
2022/12/04 15:18:22;;;;;;;18.30;5.42;;;;;;;6.13;27.42;102355.80;1786754;80;21175;-80
2022/12/04 15:21:29;;;;;;;18.87;4.03;;;;;;;6.12;27.34;102371.72;1800629;79;21174;-79
2022/12/04 15:24:35;;;;;;;17.85;6.70;;;;;;;6.89;26.46;102346.69;1823624;78;21780;-80
2022/12/04 15:27:40;;;;;;;11.50;5.75;;;;;;;10.12;23.53;102340.52;1819914;79;21180;-79
2022/12/04 15:30:46;;;;;;;13.68;5.47;;;;;;;7.16;25.51;102339.00;1783890;78;21153;-80
2022/12/04 15:33:53;;;;;;;17.25;5.25;;;;;;;6.39;26.60;102342.73;1779496;79;21156;-79
2022/12/04 15:37:06;;;;;;;11.95;5.28;;;;;;;8.00;25.74;102341.72;1755839;81;21231;-80
2022/12/04 15:40:15;;;;;;;29.27;5.55;;;;;;;9.30;24.17;102349.28;1783390;80;21175;-80
2022/12/04 15:43:22;;;;;;;12.37;5.22;;;;;;;8.67;23.62;102346.38;1783700;79;21173;-79
2022/12/04 15:46:38;;;;;;;19.12;6.70;;;;;;;8.23;25.67;102344.16;1774960;79;21174;-80
2022/12/04 15:49:44;;;;;;;11.75;5.20;;;;;;;8.36;24.92;102347.73;1777596;79;21171;-79
2022/12/04 15:53:25;;;;;;;20.77;6.45;;;;;;;6.31;26.72;102357.83;1767645;81;21181;-82
2022/12/04 15:56:31;;;;;;;16.90;6.28;;;;;;;8.12;25.38;102364.02;1767247;81;21174;-80
2022/12/04 15:59:36;;;;;;;13.80;5.75;;;;;;;6.26;26.96;102370.84;1769292;79;21240;-81
2022/12/04 16:02:47;;;;;;;20.10;6.65;;;;;;;7.67;26.25;102360.88;1781786;79;21189;-81
2022/12/04 16:05:52;;;;;;;17.75;6.92;;;;;;;8.25;25.19;102368.97;1781699;79;21209;-81
2022/12/04 16:09:05;;;;;;;15.93;6.95;;;;;;;5.89;27.65;102372.64;1752089;79;21726;-80
2022/12/04 16:12:24;;;;;;;14.00;5.72;;;;;;;6.14;27.63;102373.34;1773132;80;21200;-81
2022/12/04 19:26:17;;;;;;;29.50;10.53;;;;;;;19.78;16.22;102387.52;1894967;75;22156;-79
2022/12/04 19:29:24;;;;;;;12.00;5.85;;;;;;;18.71;16.48;102400.28;1817470;79;21247;-78
2022/12/04 19:32:30;;;;;;;24.60;6.15;;;;;;;18.95;16.27;102386.30;1801283;79;21156;-81
2022/12/04 19:35:36;;;;;;;10.13;4.53;;;;;;;18.71;16.31;102393.36;1816983;79;21188;-81
2022/12/04 19:38:41;;;;;;;9.68;4.58;;;;;;;18.23;16.51;102396.59;1784485;80;21160;-81
2022/12/04 19:41:48;;;;;;;10.85;6.40;;;;;;;18.14;16.40;102404.05;1793762;79;21696;-82
2022/12/04 19:44:52;;;;;;;11.22;4.85;;;;;;;20.32;15.08;102399.28;1783705;80;21737;-80
2022/12/04 19:47:58;;;;;;;40.50;7.45;;;;;;;19.21;15.50;102400.39;1818049;79;21133;-80
2022/12/04 19:51:09;;;;;;;15.95;9.18;;;;;;;19.45;15.34;102398.84;1816450;79;21163;-80